createdAt,value
2019-04-01T00:00:33.930Z,1.10
2019-04-01T00:03:00.142Z,1.22
2019-04-01T00:05:26.425Z,1.05
2019-04-01T00:07:52.538Z,0.50
2019-04-01T00:10:18.639Z,0.60
2019-04-01T00:12:44.783Z,0.62
2019-04-01T00:15:11.080Z,0.70
2019-04-01T00:17:37.497Z,0.40
2019-04-01T00:20:05.188Z,1.15
2019-04-01T00:22:31.321Z,0.50
2019-04-01T00:24:57.495Z,0.60
2019-04-01T00:27:23.729Z,0.55
2019-04-01T00:29:49.827Z,0.50
2019-04-01T00:32:15.949Z,0.50
2019-04-01T00:34:42.138Z,0.65
2019-04-01T00:37:08.239Z,1.07
2019-04-01T00:39:34.358Z,0.88
2019-04-01T00:42:02.556Z,0.70
2019-04-01T00:44:28.764Z,0.53
2019-04-01T00:46:54.946Z,0.35
2019-04-01T00:49:21.050Z,1.12
2019-04-01T00:51:47.453Z,0.60
2019-04-01T00:54:13.630Z,0.57
2019-04-01T00:56:39.749Z,0.78
2019-04-01T00:59:05.843Z,0.45
2019-04-01T01:01:31.965Z,0.72
2019-04-01T01:03:58.094Z,0.93
2019-04-01T01:06:24.401Z,0.90
2019-04-01T01:08:50.542Z,0.50
2019-04-01T01:11:16.697Z,0.70
2019-04-01T01:13:42.918Z,0.50
2019-04-01T01:16:09.032Z,0.47
2019-04-01T01:18:35.119Z,0.80
2019-04-01T01:21:01.256Z,0.65
2019-04-01T01:23:27.378Z,0.68
2019-04-01T01:25:53.470Z,0.50
2019-04-01T01:28:19.608Z,0.50
2019-04-01T01:30:45.800Z,0.55
2019-04-01T01:33:11.886Z,0.70
2019-04-01T01:35:38.019Z,0.50
2019-04-01T01:38:04.223Z,0.50
2019-04-01T01:40:30.349Z,0.82
2019-04-01T01:42:56.454Z,0.80
2019-04-01T01:45:22.565Z,0.50
2019-04-01T01:47:48.683Z,0.80
2019-04-01T01:50:14.812Z,0.85
2019-04-01T01:52:40.909Z,0.90
2019-04-01T01:55:07.339Z,0.47
2019-04-01T01:57:33.445Z,0.30
2019-04-01T01:59:59.556Z,0.53
2019-04-01T02:02:25.676Z,0.80
2019-04-01T02:04:52.225Z,0.60
2019-04-01T02:07:18.428Z,0.60
2019-04-01T02:09:44.551Z,0.78
2019-04-01T02:12:10.660Z,0.80
2019-04-01T02:14:36.771Z,0.82
2019-04-01T02:17:03.000Z,0.85
2019-04-01T02:19:29.131Z,0.70
2019-04-01T02:21:55.323Z,0.60
2019-04-01T02:24:21.447Z,0.98
2019-04-01T02:26:52.792Z,0.82
2019-04-01T02:29:18.912Z,0.57
2019-04-01T02:31:45.129Z,0.80
2019-04-01T02:34:11.340Z,0.80
2019-04-01T02:36:37.448Z,0.68
2019-04-01T02:39:07.075Z,0.55
2019-04-01T02:41:33.189Z,0.72
2019-04-01T02:43:59.279Z,0.50
2019-04-01T02:46:25.391Z,0.70
2019-04-01T02:48:51.491Z,1.15
2019-04-01T02:51:17.809Z,0.78
2019-04-01T02:53:44.051Z,1.02
2019-04-01T02:56:10.173Z,0.65
2019-04-01T02:58:36.405Z,1.10
2019-04-01T03:01:02.828Z,1.20
2019-04-01T03:03:28.976Z,0.62
2019-04-01T03:05:55.339Z,0.80
2019-04-01T03:08:21.604Z,0.60
2019-04-01T03:10:47.816Z,1.07
2019-04-01T03:13:13.948Z,0.60
2019-04-01T03:15:40.077Z,0.80
2019-04-01T03:18:06.422Z,0.60
2019-04-01T03:20:33.204Z,0.62
2019-04-01T03:22:59.323Z,0.60
2019-04-01T03:25:25.450Z,0.62
2019-04-01T03:27:51.582Z,0.40
2019-04-01T03:30:17.784Z,0.70
2019-04-01T03:32:45.450Z,0.70
2019-04-01T03:35:33.768Z,0.60
2019-04-01T03:37:59.927Z,0.60
2019-04-01T03:40:26.105Z,0.60
2019-04-01T03:42:52.198Z,0.82
2019-04-01T03:45:18.420Z,0.70
2019-04-01T03:47:44.522Z,0.72
2019-04-01T03:50:11.239Z,0.85
2019-04-01T03:52:37.398Z,0.90
2019-04-01T03:55:05.079Z,1.17
2019-04-01T03:57:31.254Z,0.80
2019-04-01T03:59:57.373Z,0.42
2019-04-01T04:02:23.675Z,0.65
2019-04-01T04:04:49.971Z,0.60
2019-04-01T04:07:16.213Z,0.65
2019-04-01T04:09:42.325Z,0.70
2019-04-01T04:12:08.612Z,0.82
2019-04-01T04:14:34.735Z,0.60
2019-04-01T04:17:00.849Z,0.55
2019-04-01T04:19:27.039Z,0.60
2019-04-01T04:21:53.161Z,0.60
2019-04-01T04:24:19.312Z,0.70
2019-04-01T04:26:45.497Z,1.10
2019-04-01T04:29:11.726Z,0.70
2019-04-01T04:31:37.916Z,1.00
2019-04-01T04:34:04.070Z,0.88
2019-04-01T04:36:30.178Z,0.85
2019-04-01T04:38:56.395Z,0.80
2019-04-01T04:41:22.497Z,0.62
2019-04-01T04:43:48.611Z,0.65
2019-04-01T04:46:14.755Z,0.80
2019-04-01T04:48:40.867Z,0.88
2019-04-01T04:51:06.971Z,1.00
2019-04-01T04:53:33.109Z,1.40
2019-04-01T04:55:59.202Z,0.75
2019-04-01T04:58:25.318Z,0.90
2019-04-01T05:00:51.440Z,0.70
2019-04-01T05:03:17.533Z,0.70
2019-04-01T05:05:43.755Z,1.00
2019-04-01T05:08:09.956Z,0.80
2019-04-01T05:10:36.083Z,0.80
2019-04-01T05:13:02.207Z,0.78
2019-04-01T05:15:28.419Z,1.00
2019-04-01T05:17:54.646Z,1.10
2019-04-01T05:20:23.146Z,1.15
2019-04-01T05:22:49.609Z,0.40
2019-04-01T05:25:15.882Z,0.80
2019-04-01T05:27:44.091Z,0.60
2019-04-01T05:30:10.595Z,1.02
2019-04-01T05:32:38.813Z,0.80
2019-04-01T05:35:07.956Z,0.85
2019-04-01T05:37:34.484Z,0.65
2019-04-01T05:40:01.901Z,0.62
2019-04-01T05:42:28.212Z,0.72
2019-04-01T05:44:54.451Z,0.93
2019-04-01T05:47:22.700Z,0.70
2019-04-01T05:49:49.017Z,0.80
2019-04-01T05:52:15.248Z,1.45
2019-04-01T05:54:42.915Z,0.65
2019-04-01T05:57:09.214Z,0.90
2019-04-01T05:59:35.527Z,0.62
2019-04-01T06:02:01.752Z,0.90
2019-04-01T06:04:28.182Z,0.90
2019-04-01T06:06:54.394Z,0.80
2019-04-01T06:09:20.890Z,0.70
2019-04-01T06:11:47.023Z,0.70
2019-04-01T06:14:13.309Z,0.93
2019-04-01T06:16:39.659Z,0.70
2019-04-01T06:19:06.185Z,0.98
2019-04-01T06:21:32.390Z,0.80
2019-04-01T06:23:58.804Z,0.70
2019-04-01T06:26:25.002Z,0.70
2019-04-01T06:28:51.300Z,1.17
2019-04-01T06:31:18.170Z,0.65
2019-04-01T06:33:44.304Z,0.70
2019-04-01T06:36:10.489Z,1.00
2019-04-01T06:38:36.590Z,0.50
2019-04-01T06:41:02.901Z,1.00
2019-04-01T06:43:29.103Z,1.10
2019-04-01T06:45:55.331Z,0.78
2019-04-01T06:48:21.644Z,0.88
2019-04-01T06:50:47.741Z,0.50
2019-04-01T06:53:13.955Z,0.85
2019-04-01T06:55:40.061Z,0.93
2019-04-01T06:58:06.176Z,1.22
2019-04-01T07:00:32.368Z,0.93
2019-04-01T07:02:58.586Z,1.42
2019-04-01T07:05:25.121Z,1.70
2019-04-01T07:07:51.279Z,1.00
2019-04-01T07:10:17.478Z,0.80
2019-04-01T07:12:43.793Z,0.62
2019-04-01T07:15:10.799Z,0.62
2019-04-01T07:17:37.023Z,0.70
2019-04-01T07:20:08.531Z,0.90
2019-04-01T07:22:35.460Z,0.40
2019-04-01T07:25:01.760Z,0.50
2019-04-01T07:27:27.946Z,1.00
2019-04-01T07:29:54.157Z,0.85
2019-04-01T07:32:20.386Z,0.68
2019-04-01T07:34:46.606Z,1.27
2019-04-01T07:37:12.888Z,1.27
2019-04-01T07:39:39.018Z,0.80
2019-04-01T07:42:05.106Z,1.20
2019-04-01T07:44:31.818Z,1.00
2019-04-01T07:46:57.948Z,0.85
2019-04-01T07:49:24.056Z,0.50
2019-04-01T07:51:50.156Z,0.98
2019-04-01T07:54:18.622Z,1.20
2019-04-01T07:56:44.951Z,0.80
2019-04-01T07:59:11.163Z,0.78
2019-04-01T08:01:37.893Z,0.78
2019-04-01T08:04:04.209Z,0.95
2019-04-01T08:06:30.509Z,1.10
2019-04-01T08:08:56.981Z,0.95
2019-04-01T08:11:23.356Z,1.20
2019-04-01T08:13:49.458Z,1.05
2019-04-01T08:16:15.683Z,0.75
2019-04-01T08:18:42.007Z,0.95
2019-04-01T08:21:08.425Z,1.10
2019-04-01T08:23:34.637Z,0.80
2019-04-01T08:26:00.847Z,1.35
2019-04-01T08:28:27.202Z,1.30
2019-04-01T08:30:53.395Z,1.27
2019-04-01T08:33:19.645Z,0.98
2019-04-01T08:35:45.978Z,1.10
2019-04-01T08:38:12.291Z,1.57
2019-04-01T08:40:38.618Z,1.22
2019-04-01T08:43:04.922Z,0.98
2019-04-01T08:45:31.230Z,1.70
2019-04-01T08:47:57.370Z,1.00
2019-04-01T08:50:23.777Z,0.85
2019-04-01T08:52:50.336Z,1.22
2019-04-01T08:55:16.530Z,0.90
2019-04-01T08:57:42.755Z,1.05
2019-04-01T09:00:09.254Z,1.15
2019-04-01T09:02:35.367Z,1.10
2019-04-01T09:05:01.524Z,1.12
2019-04-01T09:07:27.971Z,0.88
2019-04-01T09:09:55.963Z,0.85
2019-04-01T09:12:22.775Z,1.10
2019-04-01T09:14:49.186Z,1.37
2019-04-01T09:17:16.155Z,0.75
2019-04-01T09:19:42.338Z,1.00
2019-04-01T09:22:08.570Z,1.07
2019-04-01T09:24:34.780Z,1.10
2019-04-01T09:27:00.904Z,0.90
2019-04-01T09:29:27.006Z,1.47
2019-04-01T09:31:53.134Z,1.87
2019-04-01T09:34:19.350Z,1.12
2019-04-01T09:36:45.543Z,1.60
2019-04-01T09:39:11.666Z,1.10
2019-04-01T09:41:37.846Z,1.07
2019-04-01T09:44:04.061Z,1.02
2019-04-01T09:46:30.264Z,1.47
2019-04-01T09:48:56.376Z,1.10
2019-04-01T09:51:22.482Z,0.80
2019-04-01T09:53:48.596Z,1.17
2019-04-01T09:56:14.785Z,1.22
2019-04-01T09:58:40.911Z,1.32
2019-04-01T10:01:07.011Z,1.60
2019-04-01T10:03:33.121Z,1.45
2019-04-01T10:05:59.232Z,1.72
2019-04-01T10:08:25.347Z,0.90
2019-04-01T10:10:51.545Z,1.35
2019-04-01T10:13:17.675Z,0.95
2019-04-01T10:15:43.780Z,1.37
2019-04-01T10:18:09.903Z,1.45
2019-04-01T10:20:36.391Z,1.07
2019-04-01T10:23:02.754Z,1.17
2019-04-01T10:25:28.851Z,1.90
2019-04-01T10:27:55.068Z,2.10
2019-04-01T10:30:21.859Z,1.65
2019-04-01T10:32:48.198Z,1.85
2019-04-01T10:35:20.117Z,1.70
2019-04-01T10:37:46.362Z,1.37
2019-04-01T10:40:12.865Z,1.67
2019-04-01T10:42:39.060Z,1.42
2019-04-01T10:45:08.691Z,1.27
2019-04-01T10:47:35.088Z,1.70
2019-04-01T10:50:01.359Z,1.20
2019-04-01T10:52:27.623Z,2.60
2019-04-01T10:54:53.747Z,1.82
2019-04-01T10:57:19.973Z,1.62
2019-04-01T10:59:46.267Z,2.02
2019-04-01T11:02:12.442Z,1.40
2019-04-01T11:04:38.745Z,1.67
2019-04-01T11:07:05.035Z,1.50
2019-04-01T11:09:38.310Z,1.50
2019-04-01T11:11:59.223Z,1.10
2019-04-01T11:14:25.334Z,1.90
2019-04-01T11:16:51.444Z,2.10
2019-04-01T11:19:17.542Z,1.92
2019-04-01T11:21:43.680Z,1.20
2019-04-01T11:24:09.995Z,1.17
2019-04-01T11:26:36.615Z,1.10
2019-04-01T11:29:03.115Z,1.42
2019-04-01T11:31:29.264Z,1.50
2019-04-01T11:33:55.752Z,1.40
2019-04-01T11:36:21.949Z,1.45
2019-04-01T11:38:48.172Z,1.20
2019-04-01T11:41:14.579Z,1.40
2019-04-01T11:43:40.750Z,1.57
2019-04-01T11:46:06.878Z,1.42
2019-04-01T11:48:33.075Z,1.47
2019-04-01T11:50:59.320Z,1.10
2019-04-01T11:53:25.478Z,0.90
2019-04-01T11:55:51.606Z,1.60
2019-04-01T11:58:17.768Z,0.95
2019-04-01T12:00:43.921Z,1.35
2019-04-01T12:03:10.016Z,1.40
2019-04-01T12:05:36.267Z,1.67
2019-04-01T12:08:02.678Z,1.20
2019-04-01T12:10:28.888Z,1.80
2019-04-01T12:12:55.156Z,1.00
2019-04-01T12:15:21.308Z,1.00
2019-04-01T12:17:47.522Z,1.55
2019-04-01T12:20:13.759Z,1.12
2019-04-01T12:22:40.797Z,1.27
2019-04-01T12:25:09.207Z,1.47
2019-04-01T12:27:35.588Z,1.07
2019-04-01T12:30:03.365Z,1.20
2019-04-01T12:32:29.500Z,1.80
2019-04-01T12:34:55.819Z,1.67
2019-04-01T12:37:21.906Z,1.35
2019-04-01T12:39:48.123Z,1.40
2019-04-01T12:42:14.427Z,1.02
2019-04-01T12:44:41.454Z,1.57
2019-04-01T12:47:08.151Z,1.70
2019-04-01T12:49:34.877Z,1.12
2019-04-01T12:52:01.165Z,1.17
2019-04-01T12:54:27.367Z,0.80
2019-04-01T12:56:53.492Z,1.20
2019-04-01T12:59:19.622Z,1.70
2019-04-01T13:01:45.941Z,1.12
2019-04-01T13:04:12.030Z,1.67
2019-04-01T13:06:38.207Z,1.50
2019-04-01T13:09:06.591Z,1.40
2019-04-01T13:11:32.750Z,1.57
2019-04-01T13:13:58.977Z,2.75
2019-04-01T13:16:25.214Z,1.35
2019-04-01T13:18:51.508Z,0.90
2019-04-01T13:21:17.632Z,0.90
2019-04-01T13:23:43.778Z,1.80
2019-04-01T13:26:09.972Z,1.50
2019-04-01T13:28:36.094Z,1.15
2019-04-01T13:31:02.220Z,1.17
2019-04-01T13:33:28.336Z,1.40
2019-04-01T13:35:54.769Z,1.52
2019-04-01T13:38:20.903Z,2.02
2019-04-01T13:40:47.034Z,1.35
2019-04-01T13:43:16.718Z,1.10
2019-04-01T13:45:41.187Z,2.12
2019-04-01T13:48:07.386Z,1.62
2019-04-01T13:50:33.513Z,1.47
2019-04-01T13:52:59.630Z,1.52
2019-04-01T13:55:25.751Z,1.50
2019-04-01T13:57:51.984Z,1.80
2019-04-01T14:00:20.264Z,1.47
2019-04-01T14:02:46.754Z,1.40
2019-04-01T14:05:13.051Z,1.80
2019-04-01T14:07:39.150Z,1.77
2019-04-01T14:10:05.818Z,1.52
2019-04-01T14:12:32.024Z,2.55
2019-04-01T14:14:58.326Z,2.25
2019-04-01T14:17:24.459Z,1.40
2019-04-01T14:19:50.582Z,2.17
2019-04-01T14:22:16.695Z,2.45
2019-04-01T14:24:42.915Z,2.42
2019-04-01T14:27:09.326Z,2.72
2019-04-01T14:29:36.734Z,2.05
2019-04-01T14:32:04.388Z,2.22
2019-04-01T14:34:30.768Z,2.40
2019-04-01T14:36:56.870Z,3.17
2019-04-01T14:39:23.017Z,2.33
2019-04-01T14:41:49.125Z,2.90
2019-04-01T14:44:15.263Z,2.90
2019-04-01T14:46:41.466Z,2.20
2019-04-01T14:49:07.574Z,3.47
2019-04-01T14:51:33.813Z,2.67
2019-04-01T14:54:00.028Z,1.90
2019-04-01T14:56:27.045Z,2.17
2019-04-01T14:58:54.142Z,1.90
2019-04-01T15:01:20.238Z,3.25
2019-04-01T15:03:46.347Z,3.45
2019-04-01T15:06:12.463Z,2.83
2019-04-01T15:08:38.682Z,1.72
2019-04-01T15:11:04.884Z,2.17
2019-04-01T15:13:31.025Z,3.60
2019-04-01T15:15:57.142Z,3.55
2019-04-01T15:18:23.312Z,3.70
2019-04-01T15:20:49.573Z,1.72
2019-04-01T15:23:15.706Z,1.72
2019-04-01T15:25:41.822Z,2.10
2019-04-01T15:28:08.116Z,2.60
2019-04-01T15:30:34.417Z,3.33
2019-04-01T15:33:00.542Z,2.72
2019-04-01T15:35:26.675Z,2.10
2019-04-01T15:37:52.789Z,3.55
2019-04-01T15:40:18.923Z,2.40
2019-04-01T15:42:45.039Z,2.72
2019-04-01T15:45:11.446Z,2.58
2019-04-01T15:47:38.469Z,3.52
2019-04-01T15:50:05.378Z,3.50
2019-04-01T15:52:31.500Z,2.60
2019-04-01T15:54:58.065Z,1.90
2019-04-01T15:57:24.361Z,1.90
2019-04-01T15:59:50.657Z,2.67
2019-04-01T16:02:16.871Z,3.40
2019-04-01T16:04:43.031Z,2.95
2019-04-01T16:07:09.218Z,1.92
2019-04-01T16:09:35.370Z,3.05
2019-04-01T16:12:01.483Z,3.95
2019-04-01T16:14:27.607Z,2.00
2019-04-01T16:16:53.747Z,2.90
2019-04-01T16:19:19.931Z,2.35
2019-04-01T16:21:46.051Z,3.10
2019-04-01T16:24:12.148Z,4.05
2019-04-01T16:26:38.265Z,3.77
2019-04-01T16:29:04.376Z,3.10
2019-04-01T16:31:30.468Z,2.52
2019-04-01T16:33:56.781Z,3.15
2019-04-01T16:36:22.883Z,3.33
2019-04-01T16:38:49.038Z,3.02
2019-04-01T16:41:15.805Z,3.22
2019-04-01T16:43:42.775Z,2.58
2019-04-01T16:46:08.912Z,3.90
2019-04-01T16:48:35.005Z,3.33
2019-04-01T16:51:02.372Z,3.33
2019-04-01T16:53:29.306Z,2.50
2019-04-01T16:55:55.519Z,3.15
2019-04-01T16:58:21.683Z,4.03
2019-04-01T17:00:47.912Z,3.27
2019-04-01T17:03:14.188Z,3.42
2019-04-01T17:05:40.365Z,4.28
2019-04-01T17:08:06.479Z,3.85
2019-04-01T17:10:33.173Z,3.80
2019-04-01T17:13:01.434Z,4.15
2019-04-01T17:15:27.939Z,3.15
2019-04-01T17:17:54.067Z,3.20
2019-04-01T17:20:20.413Z,4.83
2019-04-01T17:22:46.510Z,4.40
2019-04-01T17:25:12.859Z,3.12
2019-04-01T17:27:39.169Z,4.17
2019-04-01T17:30:07.799Z,3.17
2019-04-01T17:32:33.980Z,4.78
2019-04-01T17:35:00.440Z,2.90
2019-04-01T17:37:26.785Z,2.37
2019-04-01T17:39:52.975Z,3.10
2019-04-01T17:42:19.106Z,3.92
2019-04-01T17:44:45.526Z,3.33
2019-04-01T17:47:11.759Z,3.10
2019-04-01T17:49:37.924Z,3.42
2019-04-01T17:52:04.513Z,3.17
2019-04-01T17:54:30.937Z,4.28
2019-04-01T17:56:57.061Z,3.42
2019-04-01T17:59:23.147Z,3.02
2019-04-01T18:01:49.270Z,2.62
2019-04-01T18:04:15.994Z,2.27
2019-04-01T18:06:42.199Z,2.90
2019-04-01T18:09:08.635Z,2.87
2019-04-01T18:11:34.847Z,3.45
2019-04-01T18:14:02.849Z,2.55
2019-04-01T18:16:31.276Z,2.17
2019-04-01T18:18:57.322Z,3.27
2019-04-01T18:21:23.536Z,2.90
2019-04-01T18:23:49.654Z,2.58
2019-04-01T18:26:15.775Z,2.67
2019-04-01T18:28:41.888Z,2.65
2019-04-01T18:31:08.004Z,3.20
2019-04-01T18:33:34.216Z,2.70
2019-04-01T18:36:00.338Z,2.20
2019-04-01T18:38:26.469Z,2.80
2019-04-01T18:40:53.122Z,2.40
2019-04-01T18:43:19.391Z,2.62
2019-04-01T18:45:45.826Z,2.10
2019-04-01T18:48:14.623Z,2.40
2019-04-01T18:50:40.413Z,2.10
2019-04-01T18:53:07.351Z,1.82
2019-04-01T18:55:34.336Z,1.37
2019-04-01T18:58:00.593Z,2.15
2019-04-01T19:00:26.800Z,2.12
2019-04-01T19:02:55.531Z,2.00
2019-04-01T19:05:21.277Z,2.40
2019-04-01T19:07:47.598Z,2.20
2019-04-01T19:10:14.007Z,2.15
2019-04-01T19:12:40.265Z,2.33
2019-04-01T19:15:06.877Z,2.30
2019-04-01T19:17:52.972Z,2.05
2019-04-01T19:20:19.167Z,2.58
2019-04-01T19:22:45.262Z,3.12
2019-04-01T19:25:11.791Z,3.33
2019-04-01T19:27:37.960Z,2.37
2019-04-01T19:30:05.475Z,2.27
2019-04-01T19:32:31.605Z,2.87
2019-04-01T19:34:57.811Z,2.60
2019-04-01T19:37:23.919Z,2.37
2019-04-01T19:39:50.046Z,2.47
2019-04-01T19:42:16.160Z,2.33
2019-04-01T19:44:43.156Z,2.58
2019-04-01T19:47:09.895Z,2.37
2019-04-01T19:49:36.171Z,3.02
2019-04-01T19:52:02.403Z,2.92
2019-04-01T19:54:33.563Z,2.80
2019-04-01T19:56:56.784Z,2.50
2019-04-01T19:59:25.912Z,2.58
2019-04-01T20:01:51.042Z,3.33
2019-04-01T20:04:17.154Z,2.52
2019-04-01T20:06:43.262Z,2.47
2019-04-01T20:09:09.479Z,2.62
2019-04-01T20:11:35.685Z,2.25
2019-04-01T20:14:01.853Z,2.30
2019-04-01T20:16:28.037Z,2.22
2019-04-01T20:18:54.176Z,2.70
2019-04-01T20:21:20.368Z,2.58
2019-04-01T20:23:46.589Z,3.00
2019-04-01T20:26:12.934Z,3.20
2019-04-01T20:28:39.053Z,3.37
2019-04-01T20:31:06.308Z,2.98
2019-04-01T20:33:33.016Z,3.50
2019-04-01T20:35:59.131Z,2.70
2019-04-01T20:38:27.143Z,2.70
2019-04-01T20:40:53.368Z,2.75
2019-04-01T20:43:19.493Z,2.98
2019-04-01T20:45:45.734Z,2.75
2019-04-01T20:48:11.859Z,2.70
2019-04-01T20:50:37.963Z,2.80
2019-04-01T20:53:04.105Z,2.90
2019-04-01T20:55:30.208Z,3.20
2019-04-01T20:57:56.361Z,3.25
2019-04-01T21:00:22.460Z,4.30
2019-04-01T21:02:48.574Z,3.22
2019-04-01T21:05:15.214Z,4.12
2019-04-01T21:07:41.336Z,3.47
2019-04-01T21:10:08.512Z,3.50
2019-04-01T21:12:34.634Z,3.70
2019-04-01T21:15:05.654Z,3.20
2019-04-01T21:17:31.926Z,2.58
2019-04-01T21:19:58.118Z,2.80
2019-04-01T21:22:24.347Z,3.17
2019-04-01T21:24:50.459Z,3.40
2019-04-01T21:27:16.621Z,3.08
2019-04-01T21:29:42.832Z,3.02
2019-04-01T21:32:10.117Z,3.52
2019-04-01T21:34:36.303Z,2.75
2019-04-01T21:37:03.453Z,3.83
2019-04-01T21:39:30.199Z,2.80
2019-04-01T21:41:57.052Z,3.25
2019-04-01T21:44:23.333Z,3.08
2019-04-01T21:46:49.549Z,2.77
2019-04-01T21:49:15.659Z,2.90
2019-04-01T21:51:41.814Z,3.10
2019-04-01T21:54:08.015Z,2.45
2019-04-01T21:56:34.122Z,3.67
2019-04-01T21:59:00.274Z,3.95
2019-04-01T22:01:26.506Z,3.40
2019-04-01T22:03:55.275Z,4.47
2019-04-01T22:06:21.351Z,2.67
2019-04-01T22:08:47.705Z,3.20
2019-04-01T22:11:13.875Z,2.90
2019-04-01T22:13:40.079Z,2.75
2019-04-01T22:16:06.175Z,3.70
2019-04-01T22:18:33.025Z,3.30
2019-04-01T22:20:59.220Z,2.37
2019-04-01T22:23:25.558Z,2.50
2019-04-01T22:25:51.693Z,2.58
2019-04-01T22:28:17.821Z,3.02
2019-04-01T22:30:44.040Z,3.47
2019-04-01T22:33:11.027Z,2.80
2019-04-01T22:35:39.107Z,2.62
2019-04-01T22:38:06.400Z,3.37
2019-04-01T22:40:32.879Z,2.80
2019-04-01T22:42:59.037Z,2.47
2019-04-01T22:45:25.388Z,3.25
2019-04-01T22:47:51.607Z,2.83
2019-04-01T22:50:17.711Z,3.42
2019-04-01T22:52:43.913Z,3.50
2019-04-01T22:55:10.254Z,2.50
2019-04-01T22:57:36.443Z,3.35
2019-04-01T23:00:04.155Z,2.95
2019-04-01T23:02:30.254Z,2.55
2019-04-01T23:04:56.343Z,2.90
2019-04-01T23:07:22.485Z,2.27
2019-04-01T23:09:48.593Z,2.30
2019-04-01T23:12:14.683Z,2.75
2019-04-01T23:14:40.788Z,2.20
2019-04-01T23:17:06.967Z,2.10
2019-04-01T23:19:34.245Z,2.45
2019-04-01T23:22:00.755Z,2.30
2019-04-01T23:24:28.116Z,2.37
2019-04-01T23:26:55.332Z,2.60
2019-04-01T23:29:22.240Z,2.40
2019-04-01T23:31:48.801Z,1.85
2019-04-01T23:34:14.915Z,2.00
2019-04-01T23:36:41.192Z,2.70
2019-04-01T23:39:07.632Z,3.45
2019-04-01T23:41:33.749Z,2.80
2019-04-01T23:43:59.909Z,2.35
2019-04-01T23:46:26.033Z,2.30
2019-04-01T23:48:52.147Z,2.77
2019-04-01T23:51:18.318Z,2.47
2019-04-01T23:53:44.658Z,2.52
2019-04-01T23:56:10.858Z,3.60
2019-04-01T23:58:36.983Z,2.80
